<?xml version="1.0" encoding="UTF-8" standalone="no" ?>
<gpx xmlns="http://www.topografix.com/GPX/1/1" xmlns:xsi="http://www.w3.org/2001/XMLSchema-instance" xsi:schemaLocation="http://www.topografix.com/GPX/1/1 http://www.topografix.com/GPX/1/1/gpx.xsd" version="1.1" creator="VisuGPX - https://www.visugpx.com">
  <metadata>
    <name>GardeFreinet01</name>
    <desc><![CDATA[GardeFreinet01]]></desc>
  </metadata>
  <trk>
    <name><![CDATA[ACTIVE LOG- 26 JUL 2011 11-15-MNT]]></name>
    <trkseg>
      <trkpt lat="43.31749" lon="6.47">
        <ele>341.115448</ele>
        <time>2011-07-26T09:15:23Z</time>
      </trkpt>
      <trkpt lat="43.31693" lon="6.46983">
        <ele>349.593597</ele>
        <time>2011-07-26T09:17:30Z</time>
      </trkpt>
      <trkpt lat="43.31676" lon="6.47024">
        <ele>347.801239</ele>
        <time>2011-07-26T09:17:47Z</time>
      </trkpt>
      <trkpt lat="43.31637" lon="6.47058">
        <ele>347.799744</ele>
        <time>2011-07-26T09:18:02Z</time>
      </trkpt>
      <trkpt lat="43.31593" lon="6.47075">
        <ele>347.138275</ele>
        <time>2011-07-26T09:18:16Z</time>
      </trkpt>
      <trkpt lat="43.31545" lon="6.47079">
        <ele>347.558014</ele>
        <time>2011-07-26T09:18:30Z</time>
      </trkpt>
      <trkpt lat="43.315" lon="6.47094">
        <ele>347.529999</ele>
        <time>2011-07-26T09:18:42Z</time>
      </trkpt>
      <trkpt lat="43.31453" lon="6.47105">
        <ele>350.504639</ele>
        <time>2011-07-26T09:19:03Z</time>
      </trkpt>
      <trkpt lat="43.31434" lon="6.47132">
        <ele>350.18338</ele>
        <time>2011-07-26T09:20:41Z</time>
      </trkpt>
      <trkpt lat="43.31446" lon="6.4718">
        <ele>348.183441</ele>
        <time>2011-07-26T09:20:57Z</time>
      </trkpt>
      <trkpt lat="43.31472" lon="6.47231">
        <ele>348.946136</ele>
        <time>2011-07-26T09:21:12Z</time>
      </trkpt>
      <trkpt lat="43.31482" lon="6.47235">
        <ele>348.497559</ele>
        <time>2011-07-26T09:21:58Z</time>
      </trkpt>
      <trkpt lat="43.31455" lon="6.47172">
        <ele>347.147217</ele>
        <time>2011-07-26T09:22:13Z</time>
      </trkpt>
      <trkpt lat="43.31454" lon="6.47115">
        <ele>349.623749</ele>
        <time>2011-07-26T09:23:23Z</time>
      </trkpt>
      <trkpt lat="43.31444" lon="6.47116">
        <ele>350.367462</ele>
        <time>2011-07-26T09:24:53Z</time>
      </trkpt>
      <trkpt lat="43.31472" lon="6.47061">
        <ele>353.15332</ele>
        <time>2011-07-26T09:25:21Z</time>
      </trkpt>
      <trkpt lat="43.31481" lon="6.47002">
        <ele>359.394989</ele>
        <time>2011-07-26T09:26:00Z</time>
      </trkpt>
      <trkpt lat="43.31495" lon="6.46941">
        <ele>366.49649</ele>
        <time>2011-07-26T09:26:43Z</time>
      </trkpt>
      <trkpt lat="43.3149" lon="6.46894">
        <ele>373.040619</ele>
        <time>2011-07-26T09:27:24Z</time>
      </trkpt>
      <trkpt lat="43.31439" lon="6.46884">
        <ele>380.116974</ele>
        <time>2011-07-26T09:27:58Z</time>
      </trkpt>
      <trkpt lat="43.31388" lon="6.4687">
        <ele>388.824219</ele>
        <time>2011-07-26T09:28:36Z</time>
      </trkpt>
      <trkpt lat="43.31346" lon="6.46888">
        <ele>388.944672</ele>
        <time>2011-07-26T09:29:04Z</time>
      </trkpt>
      <trkpt lat="43.31294" lon="6.46889">
        <ele>392.621368</ele>
        <time>2011-07-26T09:29:34Z</time>
      </trkpt>
      <trkpt lat="43.31239" lon="6.46871">
        <ele>398.667511</ele>
        <time>2011-07-26T09:30:09Z</time>
      </trkpt>
      <trkpt lat="43.31196" lon="6.46831">
        <ele>409.579987</ele>
        <time>2011-07-26T09:30:49Z</time>
      </trkpt>
      <trkpt lat="43.31245" lon="6.46831">
        <ele>410.325684</ele>
        <time>2011-07-26T09:31:16Z</time>
      </trkpt>
      <trkpt lat="43.31291" lon="6.46822">
        <ele>411.811066</ele>
        <time>2011-07-26T09:31:40Z</time>
      </trkpt>
      <trkpt lat="43.31335" lon="6.46793">
        <ele>417.206818</ele>
        <time>2011-07-26T09:32:08Z</time>
      </trkpt>
      <trkpt lat="43.31374" lon="6.46757">
        <ele>419.78833</ele>
        <time>2011-07-26T09:32:32Z</time>
      </trkpt>
      <trkpt lat="43.3141" lon="6.46721">
        <ele>423.358765</ele>
        <time>2011-07-26T09:32:58Z</time>
      </trkpt>
      <trkpt lat="43.31449" lon="6.46691">
        <ele>427.050659</ele>
        <time>2011-07-26T09:33:25Z</time>
      </trkpt>
      <trkpt lat="43.31492" lon="6.46667">
        <ele>429.548981</ele>
        <time>2011-07-26T09:34:29Z</time>
      </trkpt>
      <trkpt lat="43.31535" lon="6.46641">
        <ele>428.688324</ele>
        <time>2011-07-26T09:34:46Z</time>
      </trkpt>
      <trkpt lat="43.31566" lon="6.46595">
        <ele>431.330597</ele>
        <time>2011-07-26T09:35:01Z</time>
      </trkpt>
      <trkpt lat="43.31599" lon="6.46556">
        <ele>433.220764</ele>
        <time>2011-07-26T09:35:18Z</time>
      </trkpt>
      <trkpt lat="43.31635" lon="6.46516">
        <ele>432.927856</ele>
        <time>2011-07-26T09:35:34Z</time>
      </trkpt>
      <trkpt lat="43.31679" lon="6.46519">
        <ele>426.505005</ele>
        <time>2011-07-26T09:35:48Z</time>
      </trkpt>
      <trkpt lat="43.31681" lon="6.4651">
        <ele>426.576263</ele>
        <time>2011-07-26T09:36:54Z</time>
      </trkpt>
      <trkpt lat="43.3168" lon="6.46506">
        <ele>426.70874</ele>
        <time>2011-07-26T09:37:20Z</time>
      </trkpt>
      <trkpt lat="43.3164" lon="6.46505">
        <ele>432.212006</ele>
        <time>2011-07-26T09:38:18Z</time>
      </trkpt>
      <trkpt lat="43.3161" lon="6.4645">
        <ele>438.91156</ele>
        <time>2011-07-26T09:41:10Z</time>
      </trkpt>
      <trkpt lat="43.31586" lon="6.46396">
        <ele>442.138519</ele>
        <time>2011-07-26T09:41:43Z</time>
      </trkpt>
      <trkpt lat="43.31561" lon="6.46343">
        <ele>442.065887</ele>
        <time>2011-07-26T09:42:05Z</time>
      </trkpt>
      <trkpt lat="43.31525" lon="6.46322">
        <ele>446.369293</ele>
        <time>2011-07-26T09:42:24Z</time>
      </trkpt>
      <trkpt lat="43.31479" lon="6.46335">
        <ele>451.75</ele>
        <time>2011-07-26T09:42:46Z</time>
      </trkpt>
      <trkpt lat="43.31437" lon="6.46359">
        <ele>456.293671</ele>
        <time>2011-07-26T09:43:10Z</time>
      </trkpt>
      <trkpt lat="43.31392" lon="6.46367">
        <ele>455.857513</ele>
        <time>2011-07-26T09:43:32Z</time>
      </trkpt>
      <trkpt lat="43.3135" lon="6.46386">
        <ele>462.002502</ele>
        <time>2011-07-26T09:43:56Z</time>
      </trkpt>
      <trkpt lat="43.31309" lon="6.46355">
        <ele>461.44519</ele>
        <time>2011-07-26T09:44:21Z</time>
      </trkpt>
      <trkpt lat="43.31267" lon="6.4632">
        <ele>463.039734</ele>
        <time>2011-07-26T09:44:54Z</time>
      </trkpt>
      <trkpt lat="43.31221" lon="6.46325">
        <ele>466.642242</ele>
        <time>2011-07-26T09:45:25Z</time>
      </trkpt>
      <trkpt lat="43.31209" lon="6.46383">
        <ele>477.549286</ele>
        <time>2011-07-26T09:45:54Z</time>
      </trkpt>
      <trkpt lat="43.31177" lon="6.46431">
        <ele>478.787506</ele>
        <time>2011-07-26T09:46:19Z</time>
      </trkpt>
      <trkpt lat="43.31146" lon="6.46474">
        <ele>482.639069</ele>
        <time>2011-07-26T09:46:41Z</time>
      </trkpt>
      <trkpt lat="43.31105" lon="6.46496">
        <ele>485.553741</ele>
        <time>2011-07-26T09:47:07Z</time>
      </trkpt>
      <trkpt lat="43.31058" lon="6.46484">
        <ele>485.439789</ele>
        <time>2011-07-26T09:47:31Z</time>
      </trkpt>
      <trkpt lat="43.31018" lon="6.46446">
        <ele>482.516693</ele>
        <time>2011-07-26T09:47:53Z</time>
      </trkpt>
      <trkpt lat="43.30965" lon="6.46443">
        <ele>490.003662</ele>
        <time>2011-07-26T09:48:59Z</time>
      </trkpt>
      <trkpt lat="43.30928" lon="6.46403">
        <ele>488.124146</ele>
        <time>2011-07-26T09:49:20Z</time>
      </trkpt>
      <trkpt lat="43.30888" lon="6.46371">
        <ele>487.877869</ele>
        <time>2011-07-26T09:49:42Z</time>
      </trkpt>
      <trkpt lat="43.30843" lon="6.46367">
        <ele>491.323944</ele>
        <time>2011-07-26T09:50:01Z</time>
      </trkpt>
      <trkpt lat="43.30803" lon="6.46326">
        <ele>494.29245</ele>
        <time>2011-07-26T09:50:43Z</time>
      </trkpt>
      <trkpt lat="43.30761" lon="6.46274">
        <ele>501.023926</ele>
        <time>2011-07-26T09:51:14Z</time>
      </trkpt>
      <trkpt lat="43.30731" lon="6.46219">
        <ele>505.145416</ele>
        <time>2011-07-26T09:51:40Z</time>
      </trkpt>
      <trkpt lat="43.3071" lon="6.46159">
        <ele>503.566132</ele>
        <time>2011-07-26T09:52:01Z</time>
      </trkpt>
      <trkpt lat="43.30684" lon="6.4612">
        <ele>502.020782</ele>
        <time>2011-07-26T09:52:17Z</time>
      </trkpt>
      <trkpt lat="43.30644" lon="6.46121">
        <ele>507.209534</ele>
        <time>2011-07-26T09:52:43Z</time>
      </trkpt>
      <trkpt lat="43.30613" lon="6.46064">
        <ele>502.374481</ele>
        <time>2011-07-26T09:52:56Z</time>
      </trkpt>
      <trkpt lat="43.30572" lon="6.46041">
        <ele>502.042328</ele>
        <time>2011-07-26T09:53:13Z</time>
      </trkpt>
      <trkpt lat="43.30527" lon="6.46043">
        <ele>507.422699</ele>
        <time>2011-07-26T09:53:31Z</time>
      </trkpt>
      <trkpt lat="43.30529" lon="6.45977">
        <ele>504.123016</ele>
        <time>2011-07-26T09:53:48Z</time>
      </trkpt>
      <trkpt lat="43.30536" lon="6.4591">
        <ele>503.798828</ele>
        <time>2011-07-26T09:54:04Z</time>
      </trkpt>
      <trkpt lat="43.3052" lon="6.45839">
        <ele>508.526581</ele>
        <time>2011-07-26T09:54:25Z</time>
      </trkpt>
      <trkpt lat="43.30557" lon="6.45804">
        <ele>504.259094</ele>
        <time>2011-07-26T09:54:39Z</time>
      </trkpt>
      <trkpt lat="43.3058" lon="6.45739">
        <ele>510.444977</ele>
        <time>2011-07-26T09:54:59Z</time>
      </trkpt>
      <trkpt lat="43.30597" lon="6.45678">
        <ele>511.944397</ele>
        <time>2011-07-26T09:55:25Z</time>
      </trkpt>
      <trkpt lat="43.30611" lon="6.45618">
        <ele>511.712341</ele>
        <time>2011-07-26T09:55:43Z</time>
      </trkpt>
      <trkpt lat="43.30637" lon="6.45549">
        <ele>510.035004</ele>
        <time>2011-07-26T09:55:51Z</time>
      </trkpt>
      <trkpt lat="43.30666" lon="6.45491">
        <ele>506.400391</ele>
        <time>2011-07-26T09:55:58Z</time>
      </trkpt>
      <trkpt lat="43.30681" lon="6.45433">
        <ele>504.916473</ele>
        <time>2011-07-26T09:56:11Z</time>
      </trkpt>
      <trkpt lat="43.30697" lon="6.45368">
        <ele>506.452637</ele>
        <time>2011-07-26T09:56:28Z</time>
      </trkpt>
      <trkpt lat="43.30724" lon="6.45313">
        <ele>505.434387</ele>
        <time>2011-07-26T09:56:41Z</time>
      </trkpt>
      <trkpt lat="43.30758" lon="6.45281">
        <ele>503.089996</ele>
        <time>2011-07-26T09:56:53Z</time>
      </trkpt>
      <trkpt lat="43.30779" lon="6.45225">
        <ele>505.435394</ele>
        <time>2011-07-26T09:57:10Z</time>
      </trkpt>
      <trkpt lat="43.30783" lon="6.45149">
        <ele>510.242188</ele>
        <time>2011-07-26T09:57:24Z</time>
      </trkpt>
      <trkpt lat="43.30807" lon="6.45091">
        <ele>506.454254</ele>
        <time>2011-07-26T09:57:34Z</time>
      </trkpt>
      <trkpt lat="43.30828" lon="6.45029">
        <ele>503.866211</ele>
        <time>2011-07-26T09:57:43Z</time>
      </trkpt>
      <trkpt lat="43.30823" lon="6.4498">
        <ele>502.552948</ele>
        <time>2011-07-26T09:59:51Z</time>
      </trkpt>
      <trkpt lat="43.30779" lon="6.44981">
        <ele>505.327362</ele>
        <time>2011-07-26T10:00:12Z</time>
      </trkpt>
      <trkpt lat="43.30734" lon="6.45004">
        <ele>509.46579</ele>
        <time>2011-07-26T10:00:34Z</time>
      </trkpt>
      <trkpt lat="43.30694" lon="6.45033">
        <ele>514.878479</ele>
        <time>2011-07-26T10:00:57Z</time>
      </trkpt>
      <trkpt lat="43.30648" lon="6.45033">
        <ele>514.578613</ele>
        <time>2011-07-26T10:01:18Z</time>
      </trkpt>
      <trkpt lat="43.30609" lon="6.45055">
        <ele>516.673767</ele>
        <time>2011-07-26T10:01:41Z</time>
      </trkpt>
      <trkpt lat="43.30577" lon="6.45097">
        <ele>520.660217</ele>
        <time>2011-07-26T10:02:04Z</time>
      </trkpt>
      <trkpt lat="43.30542" lon="6.45134">
        <ele>524.083435</ele>
        <time>2011-07-26T10:02:27Z</time>
      </trkpt>
      <trkpt lat="43.30518" lon="6.45182">
        <ele>524.480286</ele>
        <time>2011-07-26T10:02:52Z</time>
      </trkpt>
      <trkpt lat="43.30498" lon="6.45238">
        <ele>526.05835</ele>
        <time>2011-07-26T10:03:15Z</time>
      </trkpt>
      <trkpt lat="43.30466" lon="6.45284">
        <ele>526.630005</ele>
        <time>2011-07-26T10:04:02Z</time>
      </trkpt>
      <trkpt lat="43.30433" lon="6.45331">
        <ele>529.127136</ele>
        <time>2011-07-26T10:04:25Z</time>
      </trkpt>
      <trkpt lat="43.30406" lon="6.45382">
        <ele>535.227661</ele>
        <time>2011-07-26T10:04:47Z</time>
      </trkpt>
      <trkpt lat="43.30365" lon="6.45405">
        <ele>535.12793</ele>
        <time>2011-07-26T10:05:07Z</time>
      </trkpt>
      <trkpt lat="43.30325" lon="6.45438">
        <ele>538.009399</ele>
        <time>2011-07-26T10:05:29Z</time>
      </trkpt>
      <trkpt lat="43.30288" lon="6.45433">
        <ele>539.16687</ele>
        <time>2011-07-26T10:05:54Z</time>
      </trkpt>
      <trkpt lat="43.30261" lon="6.45382">
        <ele>541.825439</ele>
        <time>2011-07-26T10:06:17Z</time>
      </trkpt>
      <trkpt lat="43.30274" lon="6.45324">
        <ele>539.294617</ele>
        <time>2011-07-26T10:06:38Z</time>
      </trkpt>
      <trkpt lat="43.30244" lon="6.4529">
        <ele>543.474548</ele>
        <time>2011-07-26T10:06:57Z</time>
      </trkpt>
      <trkpt lat="43.30203" lon="6.45268">
        <ele>548.580933</ele>
        <time>2011-07-26T10:07:18Z</time>
      </trkpt>
      <trkpt lat="43.30167" lon="6.45227">
        <ele>550.898621</ele>
        <time>2011-07-26T10:07:39Z</time>
      </trkpt>
      <trkpt lat="43.30139" lon="6.45175">
        <ele>548.976257</ele>
        <time>2011-07-26T10:07:56Z</time>
      </trkpt>
      <trkpt lat="43.30094" lon="6.45166">
        <ele>556.684265</ele>
        <time>2011-07-26T10:08:16Z</time>
      </trkpt>
      <trkpt lat="43.30061" lon="6.45121">
        <ele>551.542969</ele>
        <time>2011-07-26T10:08:38Z</time>
      </trkpt>
      <trkpt lat="43.30019" lon="6.45116">
        <ele>559.62085</ele>
        <time>2011-07-26T10:08:58Z</time>
      </trkpt>
      <trkpt lat="43.29978" lon="6.45085">
        <ele>561.195923</ele>
        <time>2011-07-26T10:09:18Z</time>
      </trkpt>
      <trkpt lat="43.29941" lon="6.45044">
        <ele>562.567566</ele>
        <time>2011-07-26T10:09:36Z</time>
      </trkpt>
      <trkpt lat="43.29918" lon="6.45001">
        <ele>561.704956</ele>
        <time>2011-07-26T10:10:33Z</time>
      </trkpt>
      <trkpt lat="43.29937" lon="6.44939">
        <ele>561.555359</ele>
        <time>2011-07-26T10:10:52Z</time>
      </trkpt>
      <trkpt lat="43.29957" lon="6.44884">
        <ele>567.005371</ele>
        <time>2011-07-26T10:11:13Z</time>
      </trkpt>
      <trkpt lat="43.29972" lon="6.44824">
        <ele>571.164978</ele>
        <time>2011-07-26T10:11:35Z</time>
      </trkpt>
      <trkpt lat="43.29977" lon="6.44763">
        <ele>572.076965</ele>
        <time>2011-07-26T10:11:57Z</time>
      </trkpt>
      <trkpt lat="43.29948" lon="6.44723">
        <ele>572.63855</ele>
        <time>2011-07-26T10:12:51Z</time>
      </trkpt>
      <trkpt lat="43.29918" lon="6.44672">
        <ele>570.102051</ele>
        <time>2011-07-26T10:13:03Z</time>
      </trkpt>
      <trkpt lat="43.29903" lon="6.44608">
        <ele>567.107056</ele>
        <time>2011-07-26T10:14:23Z</time>
      </trkpt>
      <trkpt lat="43.29906" lon="6.44541">
        <ele>565.039246</ele>
        <time>2011-07-26T10:14:36Z</time>
      </trkpt>
      <trkpt lat="43.29911" lon="6.44478">
        <ele>564.591431</ele>
        <time>2011-07-26T10:14:49Z</time>
      </trkpt>
      <trkpt lat="43.29927" lon="6.4442">
        <ele>570.883667</ele>
        <time>2011-07-26T10:15:01Z</time>
      </trkpt>
      <trkpt lat="43.29927" lon="6.44354">
        <ele>571.978149</ele>
        <time>2011-07-26T10:15:14Z</time>
      </trkpt>
      <trkpt lat="43.29928" lon="6.44294">
        <ele>573.269592</ele>
        <time>2011-07-26T10:15:30Z</time>
      </trkpt>
      <trkpt lat="43.2993" lon="6.44232">
        <ele>575.799255</ele>
        <time>2011-07-26T10:15:48Z</time>
      </trkpt>
      <trkpt lat="43.29914" lon="6.44174">
        <ele>574.019897</ele>
        <time>2011-07-26T10:16:02Z</time>
      </trkpt>
      <trkpt lat="43.29918" lon="6.44104">
        <ele>571.394592</ele>
        <time>2011-07-26T10:16:11Z</time>
      </trkpt>
      <trkpt lat="43.29941" lon="6.44046">
        <ele>570.497559</ele>
        <time>2011-07-26T10:16:17Z</time>
      </trkpt>
      <trkpt lat="43.29963" lon="6.43984">
        <ele>566.370972</ele>
        <time>2011-07-26T10:16:23Z</time>
      </trkpt>
      <trkpt lat="43.2998" lon="6.43931">
        <ele>561.739319</ele>
        <time>2011-07-26T10:16:35Z</time>
      </trkpt>
      <trkpt lat="43.29999" lon="6.43869">
        <ele>557.934998</ele>
        <time>2011-07-26T10:16:42Z</time>
      </trkpt>
      <trkpt lat="43.30008" lon="6.43802">
        <ele>552.313843</ele>
        <time>2011-07-26T10:16:48Z</time>
      </trkpt>
      <trkpt lat="43.30024" lon="6.43734">
        <ele>545.433044</ele>
        <time>2011-07-26T10:16:54Z</time>
      </trkpt>
      <trkpt lat="43.30036" lon="6.43664">
        <ele>541.209229</ele>
        <time>2011-07-26T10:16:59Z</time>
      </trkpt>
      <trkpt lat="43.30047" lon="6.43603">
        <ele>541.297607</ele>
        <time>2011-07-26T10:17:03Z</time>
      </trkpt>
      <trkpt lat="43.30058" lon="6.43539">
        <ele>542.737793</ele>
        <time>2011-07-26T10:17:08Z</time>
      </trkpt>
      <trkpt lat="43.3007" lon="6.43481">
        <ele>542.712769</ele>
        <time>2011-07-26T10:17:16Z</time>
      </trkpt>
      <trkpt lat="43.30083" lon="6.43427">
        <ele>540.635986</ele>
        <time>2011-07-26T10:17:34Z</time>
      </trkpt>
      <trkpt lat="43.30103" lon="6.4337">
        <ele>542.005798</ele>
        <time>2011-07-26T10:17:53Z</time>
      </trkpt>
      <trkpt lat="43.30115" lon="6.43313">
        <ele>549.600952</ele>
        <time>2011-07-26T10:18:14Z</time>
      </trkpt>
      <trkpt lat="43.30134" lon="6.43257">
        <ele>552.011719</ele>
        <time>2011-07-26T10:18:35Z</time>
      </trkpt>
      <trkpt lat="43.30151" lon="6.43199">
        <ele>557.778015</ele>
        <time>2011-07-26T10:18:56Z</time>
      </trkpt>
      <trkpt lat="43.30188" lon="6.43161">
        <ele>558.20105</ele>
        <time>2011-07-26T10:19:18Z</time>
      </trkpt>
      <trkpt lat="43.30214" lon="6.4311">
        <ele>563.541626</ele>
        <time>2011-07-26T10:19:39Z</time>
      </trkpt>
      <trkpt lat="43.30243" lon="6.43064">
        <ele>565.187195</ele>
        <time>2011-07-26T10:20:01Z</time>
      </trkpt>
      <trkpt lat="43.30278" lon="6.43026">
        <ele>565.429993</ele>
        <time>2011-07-26T10:20:25Z</time>
      </trkpt>
      <trkpt lat="43.30308" lon="6.42977">
        <ele>565.176147</ele>
        <time>2011-07-26T10:20:46Z</time>
      </trkpt>
      <trkpt lat="43.30289" lon="6.42935">
        <ele>574.157104</ele>
        <time>2011-07-26T10:21:39Z</time>
      </trkpt>
      <trkpt lat="43.30264" lon="6.4288">
        <ele>576.216064</ele>
        <time>2011-07-26T10:21:56Z</time>
      </trkpt>
      <trkpt lat="43.30255" lon="6.42812">
        <ele>572.933289</ele>
        <time>2011-07-26T10:22:43Z</time>
      </trkpt>
      <trkpt lat="43.30236" lon="6.42757">
        <ele>576.690063</ele>
        <time>2011-07-26T10:23:00Z</time>
      </trkpt>
      <trkpt lat="43.30231" lon="6.42691">
        <ele>578.442322</ele>
        <time>2011-07-26T10:23:16Z</time>
      </trkpt>
      <trkpt lat="43.30239" lon="6.42631">
        <ele>578.402954</ele>
        <time>2011-07-26T10:23:30Z</time>
      </trkpt>
      <trkpt lat="43.3024" lon="6.42566">
        <ele>577.640442</ele>
        <time>2011-07-26T10:23:42Z</time>
      </trkpt>
      <trkpt lat="43.30219" lon="6.42513">
        <ele>575.026672</ele>
        <time>2011-07-26T10:23:56Z</time>
      </trkpt>
      <trkpt lat="43.30199" lon="6.4251">
        <ele>574.989746</ele>
        <time>2011-07-26T10:24:16Z</time>
      </trkpt>
      <trkpt lat="43.30194" lon="6.42527">
        <ele>577.803101</ele>
        <time>2011-07-26T10:25:01Z</time>
      </trkpt>
      <trkpt lat="43.30212" lon="6.42464">
        <ele>571.0802</ele>
        <time>2011-07-26T10:28:32Z</time>
      </trkpt>
      <trkpt lat="43.30221" lon="6.42399">
        <ele>569.389771</ele>
        <time>2011-07-26T10:28:43Z</time>
      </trkpt>
      <trkpt lat="43.30235" lon="6.42328">
        <ele>565.767151</ele>
        <time>2011-07-26T10:28:49Z</time>
      </trkpt>
      <trkpt lat="43.30235" lon="6.42255">
        <ele>562.595215</ele>
        <time>2011-07-26T10:28:55Z</time>
      </trkpt>
      <trkpt lat="43.30224" lon="6.42185">
        <ele>560.130127</ele>
        <time>2011-07-26T10:29:01Z</time>
      </trkpt>
      <trkpt lat="43.30198" lon="6.42133">
        <ele>564.006104</ele>
        <time>2011-07-26T10:29:08Z</time>
      </trkpt>
      <trkpt lat="43.30185" lon="6.42077">
        <ele>567.02002</ele>
        <time>2011-07-26T10:29:56Z</time>
      </trkpt>
      <trkpt lat="43.30172" lon="6.42017">
        <ele>570.3125</ele>
        <time>2011-07-26T10:30:19Z</time>
      </trkpt>
      <trkpt lat="43.3016" lon="6.41957">
        <ele>570.218689</ele>
        <time>2011-07-26T10:30:40Z</time>
      </trkpt>
      <trkpt lat="43.30183" lon="6.41902">
        <ele>581.750977</ele>
        <time>2011-07-26T10:31:00Z</time>
      </trkpt>
      <trkpt lat="43.30149" lon="6.41862">
        <ele>575.962524</ele>
        <time>2011-07-26T10:31:17Z</time>
      </trkpt>
      <trkpt lat="43.30114" lon="6.41819">
        <ele>574.746521</ele>
        <time>2011-07-26T10:31:29Z</time>
      </trkpt>
      <trkpt lat="43.30087" lon="6.41765">
        <ele>572.960144</ele>
        <time>2011-07-26T10:31:40Z</time>
      </trkpt>
      <trkpt lat="43.30067" lon="6.41707">
        <ele>572.636414</ele>
        <time>2011-07-26T10:33:20Z</time>
      </trkpt>
      <trkpt lat="43.30043" lon="6.41651">
        <ele>573.406128</ele>
        <time>2011-07-26T10:33:37Z</time>
      </trkpt>
      <trkpt lat="43.3" lon="6.41625">
        <ele>573.402527</ele>
        <time>2011-07-26T10:33:52Z</time>
      </trkpt>
      <trkpt lat="43.29965" lon="6.41595">
        <ele>573.455444</ele>
        <time>2011-07-26T10:50:59Z</time>
      </trkpt>
      <trkpt lat="43.29938" lon="6.41543">
        <ele>571.911987</ele>
        <time>2011-07-26T10:51:22Z</time>
      </trkpt>
      <trkpt lat="43.29923" lon="6.41484">
        <ele>571.191711</ele>
        <time>2011-07-26T10:51:38Z</time>
      </trkpt>
      <trkpt lat="43.29911" lon="6.41422">
        <ele>572.014587</ele>
        <time>2011-07-26T10:51:52Z</time>
      </trkpt>
      <trkpt lat="43.29909" lon="6.41355">
        <ele>571.888245</ele>
        <time>2011-07-26T10:52:04Z</time>
      </trkpt>
      <trkpt lat="43.2992" lon="6.41292">
        <ele>570.171326</ele>
        <time>2011-07-26T10:52:16Z</time>
      </trkpt>
      <trkpt lat="43.29919" lon="6.41229">
        <ele>567.437256</ele>
        <time>2011-07-26T10:52:28Z</time>
      </trkpt>
      <trkpt lat="43.29903" lon="6.41266">
        <ele>565.373108</ele>
        <time>2011-07-26T10:57:45Z</time>
      </trkpt>
      <trkpt lat="43.29883" lon="6.41336">
        <ele>561.148621</ele>
        <time>2011-07-26T10:57:54Z</time>
      </trkpt>
      <trkpt lat="43.29885" lon="6.41399">
        <ele>559.835876</ele>
        <time>2011-07-26T10:58:09Z</time>
      </trkpt>
      <trkpt lat="43.29887" lon="6.41465">
        <ele>556.374146</ele>
        <time>2011-07-26T10:58:23Z</time>
      </trkpt>
      <trkpt lat="43.29889" lon="6.41535">
        <ele>552.92157</ele>
        <time>2011-07-26T10:58:33Z</time>
      </trkpt>
      <trkpt lat="43.29886" lon="6.41602">
        <ele>548.745972</ele>
        <time>2011-07-26T10:58:41Z</time>
      </trkpt>
      <trkpt lat="43.29865" lon="6.41662">
        <ele>544.707275</ele>
        <time>2011-07-26T10:58:49Z</time>
      </trkpt>
      <trkpt lat="43.29833" lon="6.41709">
        <ele>538.965027</ele>
        <time>2011-07-26T10:58:59Z</time>
      </trkpt>
      <trkpt lat="43.29806" lon="6.41762">
        <ele>534.901428</ele>
        <time>2011-07-26T10:59:08Z</time>
      </trkpt>
      <trkpt lat="43.29778" lon="6.4181">
        <ele>526.884033</ele>
        <time>2011-07-26T10:59:21Z</time>
      </trkpt>
      <trkpt lat="43.29777" lon="6.41875">
        <ele>527.708008</ele>
        <time>2011-07-26T10:59:34Z</time>
      </trkpt>
      <trkpt lat="43.29768" lon="6.41938">
        <ele>525.756042</ele>
        <time>2011-07-26T10:59:43Z</time>
      </trkpt>
      <trkpt lat="43.29746" lon="6.41996">
        <ele>519.337341</ele>
        <time>2011-07-26T10:59:53Z</time>
      </trkpt>
      <trkpt lat="43.29727" lon="6.42056">
        <ele>514.351807</ele>
        <time>2011-07-26T11:00:00Z</time>
      </trkpt>
      <trkpt lat="43.29709" lon="6.42121">
        <ele>511.684296</ele>
        <time>2011-07-26T11:00:07Z</time>
      </trkpt>
      <trkpt lat="43.29661" lon="6.42151">
        <ele>505.739868</ele>
        <time>2011-07-26T11:00:14Z</time>
      </trkpt>
      <trkpt lat="43.29614" lon="6.42136">
        <ele>499.320892</ele>
        <time>2011-07-26T11:00:21Z</time>
      </trkpt>
      <trkpt lat="43.29573" lon="6.42097">
        <ele>491.943817</ele>
        <time>2011-07-26T11:00:29Z</time>
      </trkpt>
      <trkpt lat="43.29533" lon="6.42059">
        <ele>485.200348</ele>
        <time>2011-07-26T11:00:38Z</time>
      </trkpt>
      <trkpt lat="43.29501" lon="6.42101">
        <ele>484.527985</ele>
        <time>2011-07-26T11:00:51Z</time>
      </trkpt>
      <trkpt lat="43.29465" lon="6.42144">
        <ele>478.707062</ele>
        <time>2011-07-26T11:01:00Z</time>
      </trkpt>
      <trkpt lat="43.29494" lon="6.42201">
        <ele>478.278625</ele>
        <time>2011-07-26T11:01:10Z</time>
      </trkpt>
      <trkpt lat="43.2953" lon="6.4225">
        <ele>472.232574</ele>
        <time>2011-07-26T11:01:18Z</time>
      </trkpt>
      <trkpt lat="43.29567" lon="6.42286">
        <ele>469.782562</ele>
        <time>2011-07-26T11:01:25Z</time>
      </trkpt>
      <trkpt lat="43.29604" lon="6.42328">
        <ele>463.187988</ele>
        <time>2011-07-26T11:01:32Z</time>
      </trkpt>
      <trkpt lat="43.29639" lon="6.42364">
        <ele>464.74118</ele>
        <time>2011-07-26T11:01:43Z</time>
      </trkpt>
      <trkpt lat="43.29665" lon="6.42422">
        <ele>459.167389</ele>
        <time>2011-07-26T11:01:54Z</time>
      </trkpt>
      <trkpt lat="43.29691" lon="6.42475">
        <ele>454.666504</ele>
        <time>2011-07-26T11:02:02Z</time>
      </trkpt>
      <trkpt lat="43.29678" lon="6.42481">
        <ele>449.793396</ele>
        <time>2011-07-26T11:02:20Z</time>
      </trkpt>
      <trkpt lat="43.29641" lon="6.42438">
        <ele>448.040009</ele>
        <time>2011-07-26T11:02:29Z</time>
      </trkpt>
      <trkpt lat="43.29606" lon="6.42388">
        <ele>445.127502</ele>
        <time>2011-07-26T11:02:37Z</time>
      </trkpt>
      <trkpt lat="43.29557" lon="6.42386">
        <ele>434.426239</ele>
        <time>2011-07-26T11:02:48Z</time>
      </trkpt>
      <trkpt lat="43.29508" lon="6.42368">
        <ele>433.3927</ele>
        <time>2011-07-26T11:02:54Z</time>
      </trkpt>
      <trkpt lat="43.29468" lon="6.42391">
        <ele>427.629364</ele>
        <time>2011-07-26T11:03:03Z</time>
      </trkpt>
      <trkpt lat="43.29435" lon="6.42434">
        <ele>419.346863</ele>
        <time>2011-07-26T11:03:13Z</time>
      </trkpt>
      <trkpt lat="43.29393" lon="6.42426">
        <ele>418.229187</ele>
        <time>2011-07-26T11:03:27Z</time>
      </trkpt>
      <trkpt lat="43.29347" lon="6.4244">
        <ele>412.057343</ele>
        <time>2011-07-26T11:03:35Z</time>
      </trkpt>
      <trkpt lat="43.29294" lon="6.42435">
        <ele>408.129242</ele>
        <time>2011-07-26T11:03:42Z</time>
      </trkpt>
      <trkpt lat="43.29241" lon="6.42431">
        <ele>403.821075</ele>
        <time>2011-07-26T11:03:48Z</time>
      </trkpt>
      <trkpt lat="43.29191" lon="6.42434">
        <ele>399.032562</ele>
        <time>2011-07-26T11:03:56Z</time>
      </trkpt>
      <trkpt lat="43.29147" lon="6.42422">
        <ele>399.943512</ele>
        <time>2011-07-26T11:04:03Z</time>
      </trkpt>
      <trkpt lat="43.29098" lon="6.42426">
        <ele>393.034698</ele>
        <time>2011-07-26T11:04:10Z</time>
      </trkpt>
      <trkpt lat="43.29057" lon="6.42416">
        <ele>389.735321</ele>
        <time>2011-07-26T11:04:22Z</time>
      </trkpt>
      <trkpt lat="43.29035" lon="6.42359">
        <ele>390.242126</ele>
        <time>2011-07-26T11:04:32Z</time>
      </trkpt>
      <trkpt lat="43.29019" lon="6.42298">
        <ele>386.004395</ele>
        <time>2011-07-26T11:04:40Z</time>
      </trkpt>
      <trkpt lat="43.2901" lon="6.42232">
        <ele>383.868134</ele>
        <time>2011-07-26T11:04:50Z</time>
      </trkpt>
      <trkpt lat="43.28983" lon="6.42183">
        <ele>378.430695</ele>
        <time>2011-07-26T11:04:59Z</time>
      </trkpt>
      <trkpt lat="43.28941" lon="6.42139">
        <ele>368.035645</ele>
        <time>2011-07-26T11:05:07Z</time>
      </trkpt>
      <trkpt lat="43.28905" lon="6.42102">
        <ele>359.715881</ele>
        <time>2011-07-26T11:05:17Z</time>
      </trkpt>
      <trkpt lat="43.28894" lon="6.42041">
        <ele>354.829987</ele>
        <time>2011-07-26T11:05:27Z</time>
      </trkpt>
      <trkpt lat="43.28884" lon="6.4198">
        <ele>348.883484</ele>
        <time>2011-07-26T11:05:36Z</time>
      </trkpt>
      <trkpt lat="43.28868" lon="6.41943">
        <ele>345.428223</ele>
        <time>2011-07-26T11:07:52Z</time>
      </trkpt>
      <trkpt lat="43.28885" lon="6.41996">
        <ele>349.29361</ele>
        <time>2011-07-26T11:08:47Z</time>
      </trkpt>
      <trkpt lat="43.28883" lon="6.42061">
        <ele>349.880005</ele>
        <time>2011-07-26T11:09:03Z</time>
      </trkpt>
      <trkpt lat="43.2889" lon="6.42123">
        <ele>348.651703</ele>
        <time>2011-07-26T11:09:17Z</time>
      </trkpt>
      <trkpt lat="43.2892" lon="6.42171">
        <ele>351.918427</ele>
        <time>2011-07-26T11:09:31Z</time>
      </trkpt>
      <trkpt lat="43.28951" lon="6.42213">
        <ele>356.399506</ele>
        <time>2011-07-26T11:09:44Z</time>
      </trkpt>
      <trkpt lat="43.28962" lon="6.42276">
        <ele>358.082001</ele>
        <time>2011-07-26T11:10:31Z</time>
      </trkpt>
      <trkpt lat="43.28956" lon="6.42341">
        <ele>356.032684</ele>
        <time>2011-07-26T11:11:07Z</time>
      </trkpt>
      <trkpt lat="43.28939" lon="6.42405">
        <ele>354.04718</ele>
        <time>2011-07-26T11:11:20Z</time>
      </trkpt>
      <trkpt lat="43.28966" lon="6.42456">
        <ele>357.525848</ele>
        <time>2011-07-26T11:11:33Z</time>
      </trkpt>
      <trkpt lat="43.29005" lon="6.42492">
        <ele>356.441589</ele>
        <time>2011-07-26T11:12:03Z</time>
      </trkpt>
      <trkpt lat="43.29048" lon="6.42521">
        <ele>352.738739</ele>
        <time>2011-07-26T11:12:19Z</time>
      </trkpt>
      <trkpt lat="43.29093" lon="6.42508">
        <ele>358.727295</ele>
        <time>2011-07-26T11:12:34Z</time>
      </trkpt>
      <trkpt lat="43.29138" lon="6.42496">
        <ele>363.845032</ele>
        <time>2011-07-26T11:12:48Z</time>
      </trkpt>
      <trkpt lat="43.29184" lon="6.42513">
        <ele>361.943512</ele>
        <time>2011-07-26T11:13:02Z</time>
      </trkpt>
      <trkpt lat="43.29228" lon="6.42534">
        <ele>362.537781</ele>
        <time>2011-07-26T11:13:17Z</time>
      </trkpt>
      <trkpt lat="43.29269" lon="6.42564">
        <ele>363.771149</ele>
        <time>2011-07-26T11:13:34Z</time>
      </trkpt>
      <trkpt lat="43.29309" lon="6.426">
        <ele>362.449524</ele>
        <time>2011-07-26T11:13:50Z</time>
      </trkpt>
      <trkpt lat="43.2935" lon="6.42625">
        <ele>359.614594</ele>
        <time>2011-07-26T11:14:04Z</time>
      </trkpt>
      <trkpt lat="43.29389" lon="6.42589">
        <ele>368.272919</ele>
        <time>2011-07-26T11:14:18Z</time>
      </trkpt>
      <trkpt lat="43.29429" lon="6.42609">
        <ele>363.074005</ele>
        <time>2011-07-26T11:15:03Z</time>
      </trkpt>
      <trkpt lat="43.29451" lon="6.42644">
        <ele>363.754913</ele>
        <time>2011-07-26T11:15:20Z</time>
      </trkpt>
      <trkpt lat="43.29445" lon="6.42708">
        <ele>363.247406</ele>
        <time>2011-07-26T11:15:36Z</time>
      </trkpt>
      <trkpt lat="43.29443" lon="6.42774">
        <ele>363.627777</ele>
        <time>2011-07-26T11:15:52Z</time>
      </trkpt>
      <trkpt lat="43.29465" lon="6.42828">
        <ele>363.431396</ele>
        <time>2011-07-26T11:16:09Z</time>
      </trkpt>
      <trkpt lat="43.29509" lon="6.42811">
        <ele>368.537109</ele>
        <time>2011-07-26T11:16:26Z</time>
      </trkpt>
      <trkpt lat="43.29545" lon="6.42773">
        <ele>372.949921</ele>
        <time>2011-07-26T11:16:39Z</time>
      </trkpt>
      <trkpt lat="43.29578" lon="6.42821">
        <ele>361.852936</ele>
        <time>2011-07-26T11:16:52Z</time>
      </trkpt>
      <trkpt lat="43.29632" lon="6.42806">
        <ele>356.948364</ele>
        <time>2011-07-26T11:17:02Z</time>
      </trkpt>
      <trkpt lat="43.2966" lon="6.42754">
        <ele>366.346252</ele>
        <time>2011-07-26T11:17:14Z</time>
      </trkpt>
      <trkpt lat="43.29687" lon="6.42711">
        <ele>371.443787</ele>
        <time>2011-07-26T11:17:27Z</time>
      </trkpt>
      <trkpt lat="43.29724" lon="6.42687">
        <ele>368.747681</ele>
        <time>2011-07-26T11:17:36Z</time>
      </trkpt>
      <trkpt lat="43.29768" lon="6.42645">
        <ele>371.014587</ele>
        <time>2011-07-26T11:17:46Z</time>
      </trkpt>
      <trkpt lat="43.29781" lon="6.42656">
        <ele>366.280945</ele>
        <time>2011-07-26T11:18:29Z</time>
      </trkpt>
      <trkpt lat="43.29777" lon="6.42717">
        <ele>368.835999</ele>
        <time>2011-07-26T11:18:47Z</time>
      </trkpt>
      <trkpt lat="43.29773" lon="6.42797">
        <ele>371.318756</ele>
        <time>2011-07-26T11:19:26Z</time>
      </trkpt>
      <trkpt lat="43.29788" lon="6.42856">
        <ele>373.554138</ele>
        <time>2011-07-26T11:19:44Z</time>
      </trkpt>
      <trkpt lat="43.29809" lon="6.42908">
        <ele>377.6008</ele>
        <time>2011-07-26T11:19:54Z</time>
      </trkpt>
      <trkpt lat="43.29781" lon="6.42946">
        <ele>370.595215</ele>
        <time>2011-07-26T11:20:10Z</time>
      </trkpt>
      <trkpt lat="43.29808" lon="6.42994">
        <ele>378.605499</ele>
        <time>2011-07-26T11:20:27Z</time>
      </trkpt>
      <trkpt lat="43.29772" lon="6.43037">
        <ele>373.355011</ele>
        <time>2011-07-26T11:20:53Z</time>
      </trkpt>
      <trkpt lat="43.29745" lon="6.43091">
        <ele>375.619202</ele>
        <time>2011-07-26T11:21:13Z</time>
      </trkpt>
      <trkpt lat="43.29738" lon="6.43162">
        <ele>378.957764</ele>
        <time>2011-07-26T11:21:59Z</time>
      </trkpt>
      <trkpt lat="43.29767" lon="6.432">
        <ele>381.318695</ele>
        <time>2011-07-26T11:22:23Z</time>
      </trkpt>
      <trkpt lat="43.29749" lon="6.43263">
        <ele>382.479614</ele>
        <time>2011-07-26T11:22:42Z</time>
      </trkpt>
      <trkpt lat="43.29734" lon="6.43328">
        <ele>390.949249</ele>
        <time>2011-07-26T11:23:01Z</time>
      </trkpt>
      <trkpt lat="43.29721" lon="6.43395">
        <ele>390.722961</ele>
        <time>2011-07-26T11:23:21Z</time>
      </trkpt>
      <trkpt lat="43.29739" lon="6.43458">
        <ele>391.741241</ele>
        <time>2011-07-26T11:23:42Z</time>
      </trkpt>
      <trkpt lat="43.29768" lon="6.43507">
        <ele>393.054474</ele>
        <time>2011-07-26T11:24:00Z</time>
      </trkpt>
      <trkpt lat="43.29798" lon="6.4356">
        <ele>399.299866</ele>
        <time>2011-07-26T11:24:23Z</time>
      </trkpt>
      <trkpt lat="43.29777" lon="6.43604">
        <ele>397.493286</ele>
        <time>2011-07-26T11:24:40Z</time>
      </trkpt>
      <trkpt lat="43.29729" lon="6.43605">
        <ele>395.144989</ele>
        <time>2011-07-26T11:25:00Z</time>
      </trkpt>
      <trkpt lat="43.29686" lon="6.43631">
        <ele>403.242126</ele>
        <time>2011-07-26T11:25:18Z</time>
      </trkpt>
      <trkpt lat="43.29638" lon="6.43638">
        <ele>404.283783</ele>
        <time>2011-07-26T11:25:35Z</time>
      </trkpt>
      <trkpt lat="43.29591" lon="6.43623">
        <ele>402.842346</ele>
        <time>2011-07-26T11:25:55Z</time>
      </trkpt>
      <trkpt lat="43.29557" lon="6.43671">
        <ele>408.411743</ele>
        <time>2011-07-26T11:26:08Z</time>
      </trkpt>
      <trkpt lat="43.29535" lon="6.43726">
        <ele>411.363007</ele>
        <time>2011-07-26T11:26:22Z</time>
      </trkpt>
      <trkpt lat="43.2951" lon="6.4378">
        <ele>409.531097</ele>
        <time>2011-07-26T11:26:35Z</time>
      </trkpt>
      <trkpt lat="43.29492" lon="6.43845">
        <ele>409.804565</ele>
        <time>2011-07-26T11:26:49Z</time>
      </trkpt>
      <trkpt lat="43.29479" lon="6.43911">
        <ele>411.629608</ele>
        <time>2011-07-26T11:27:04Z</time>
      </trkpt>
      <trkpt lat="43.29468" lon="6.43983">
        <ele>413.018799</ele>
        <time>2011-07-26T11:27:24Z</time>
      </trkpt>
      <trkpt lat="43.29467" lon="6.44052">
        <ele>414.086243</ele>
        <time>2011-07-26T11:27:43Z</time>
      </trkpt>
      <trkpt lat="43.29477" lon="6.44119">
        <ele>413.700012</ele>
        <time>2011-07-26T11:28:06Z</time>
      </trkpt>
      <trkpt lat="43.29521" lon="6.44146">
        <ele>420.282593</ele>
        <time>2011-07-26T11:28:28Z</time>
      </trkpt>
      <trkpt lat="43.29552" lon="6.44195">
        <ele>423.563477</ele>
        <time>2011-07-26T11:28:46Z</time>
      </trkpt>
      <trkpt lat="43.29557" lon="6.44268">
        <ele>423.274994</ele>
        <time>2011-07-26T11:30:02Z</time>
      </trkpt>
      <trkpt lat="43.29581" lon="6.44326">
        <ele>422.482758</ele>
        <time>2011-07-26T11:30:25Z</time>
      </trkpt>
      <trkpt lat="43.29629" lon="6.4435">
        <ele>427.036957</ele>
        <time>2011-07-26T11:30:47Z</time>
      </trkpt>
      <trkpt lat="43.2964" lon="6.44412">
        <ele>431.383514</ele>
        <time>2011-07-26T11:31:06Z</time>
      </trkpt>
      <trkpt lat="43.29632" lon="6.44473">
        <ele>433.239716</ele>
        <time>2011-07-26T11:31:27Z</time>
      </trkpt>
      <trkpt lat="43.29632" lon="6.44538">
        <ele>437.992676</ele>
        <time>2011-07-26T11:31:50Z</time>
      </trkpt>
      <trkpt lat="43.29622" lon="6.44604">
        <ele>437.67749</ele>
        <time>2011-07-26T11:32:16Z</time>
      </trkpt>
      <trkpt lat="43.29625" lon="6.44669">
        <ele>443.042908</ele>
        <time>2011-07-26T11:32:40Z</time>
      </trkpt>
      <trkpt lat="43.29633" lon="6.44735">
        <ele>447.204224</ele>
        <time>2011-07-26T11:33:04Z</time>
      </trkpt>
      <trkpt lat="43.29658" lon="6.44789">
        <ele>452.642517</ele>
        <time>2011-07-26T11:33:30Z</time>
      </trkpt>
      <trkpt lat="43.29684" lon="6.44854">
        <ele>457.825195</ele>
        <time>2011-07-26T11:35:26Z</time>
      </trkpt>
      <trkpt lat="43.29686" lon="6.44926">
        <ele>459.731079</ele>
        <time>2011-07-26T11:35:51Z</time>
      </trkpt>
      <trkpt lat="43.29664" lon="6.44974">
        <ele>460.634735</ele>
        <time>2011-07-26T11:36:17Z</time>
      </trkpt>
      <trkpt lat="43.29652" lon="6.45041">
        <ele>465.483002</ele>
        <time>2011-07-26T11:36:45Z</time>
      </trkpt>
      <trkpt lat="43.29644" lon="6.45104">
        <ele>468.290039</ele>
        <time>2011-07-26T11:37:10Z</time>
      </trkpt>
      <trkpt lat="43.29639" lon="6.45165">
        <ele>469.744995</ele>
        <time>2011-07-26T11:37:31Z</time>
      </trkpt>
      <trkpt lat="43.29651" lon="6.45225">
        <ele>473.366821</ele>
        <time>2011-07-26T11:37:57Z</time>
      </trkpt>
      <trkpt lat="43.29668" lon="6.45282">
        <ele>477.670013</ele>
        <time>2011-07-26T11:38:21Z</time>
      </trkpt>
      <trkpt lat="43.29643" lon="6.45334">
        <ele>480.529999</ele>
        <time>2011-07-26T11:38:49Z</time>
      </trkpt>
      <trkpt lat="43.29599" lon="6.45377">
        <ele>485.663818</ele>
        <time>2011-07-26T11:39:19Z</time>
      </trkpt>
      <trkpt lat="43.29562" lon="6.45423">
        <ele>492.636017</ele>
        <time>2011-07-26T11:39:48Z</time>
      </trkpt>
      <trkpt lat="43.29529" lon="6.45464">
        <ele>498.247498</ele>
        <time>2011-07-26T11:40:15Z</time>
      </trkpt>
      <trkpt lat="43.29481" lon="6.45446">
        <ele>499.828522</ele>
        <time>2011-07-26T11:40:40Z</time>
      </trkpt>
      <trkpt lat="43.29443" lon="6.45448">
        <ele>503.410004</ele>
        <time>2011-07-26T11:41:30Z</time>
      </trkpt>
      <trkpt lat="43.29481" lon="6.45482">
        <ele>504.98999</ele>
        <time>2011-07-26T11:41:56Z</time>
      </trkpt>
      <trkpt lat="43.29517" lon="6.45519">
        <ele>507.847504</ele>
        <time>2011-07-26T11:42:20Z</time>
      </trkpt>
      <trkpt lat="43.29542" lon="6.45571">
        <ele>512.191833</ele>
        <time>2011-07-26T11:42:43Z</time>
      </trkpt>
      <trkpt lat="43.2955" lon="6.45632">
        <ele>513.48291</ele>
        <time>2011-07-26T11:43:37Z</time>
      </trkpt>
      <trkpt lat="43.2957" lon="6.457">
        <ele>507.942841</ele>
        <time>2011-07-26T11:43:46Z</time>
      </trkpt>
      <trkpt lat="43.29612" lon="6.45745">
        <ele>500.34906</ele>
        <time>2011-07-26T11:43:53Z</time>
      </trkpt>
      <trkpt lat="43.29661" lon="6.45767">
        <ele>497.765564</ele>
        <time>2011-07-26T11:43:59Z</time>
      </trkpt>
      <trkpt lat="43.29711" lon="6.45786">
        <ele>500.519318</ele>
        <time>2011-07-26T11:44:05Z</time>
      </trkpt>
      <trkpt lat="43.29701" lon="6.45842">
        <ele>489.03009</ele>
        <time>2011-07-26T11:44:14Z</time>
      </trkpt>
      <trkpt lat="43.29687" lon="6.45909">
        <ele>481.7565</ele>
        <time>2011-07-26T11:44:49Z</time>
      </trkpt>
      <trkpt lat="43.29696" lon="6.45976">
        <ele>478.143463</ele>
        <time>2011-07-26T11:44:55Z</time>
      </trkpt>
      <trkpt lat="43.29694" lon="6.46039">
        <ele>471.334961</ele>
        <time>2011-07-26T11:45:07Z</time>
      </trkpt>
      <trkpt lat="43.29694" lon="6.46103">
        <ele>464.115479</ele>
        <time>2011-07-26T11:45:15Z</time>
      </trkpt>
      <trkpt lat="43.29708" lon="6.46154">
        <ele>455.158417</ele>
        <time>2011-07-26T11:46:02Z</time>
      </trkpt>
      <trkpt lat="43.29754" lon="6.46165">
        <ele>452.212799</ele>
        <time>2011-07-26T11:46:12Z</time>
      </trkpt>
      <trkpt lat="43.29798" lon="6.46141">
        <ele>452.097076</ele>
        <time>2011-07-26T11:46:19Z</time>
      </trkpt>
      <trkpt lat="43.29835" lon="6.4613">
        <ele>451.683014</ele>
        <time>2011-07-26T11:46:28Z</time>
      </trkpt>
      <trkpt lat="43.2988" lon="6.4616">
        <ele>449.603058</ele>
        <time>2011-07-26T11:46:37Z</time>
      </trkpt>
      <trkpt lat="43.29907" lon="6.46216">
        <ele>443.341064</ele>
        <time>2011-07-26T11:46:45Z</time>
      </trkpt>
      <trkpt lat="43.29878" lon="6.46256">
        <ele>434.105988</ele>
        <time>2011-07-26T11:47:03Z</time>
      </trkpt>
      <trkpt lat="43.29842" lon="6.463">
        <ele>426.255005</ele>
        <time>2011-07-26T11:47:09Z</time>
      </trkpt>
      <trkpt lat="43.29819" lon="6.46355">
        <ele>425.152161</ele>
        <time>2011-07-26T11:47:18Z</time>
      </trkpt>
      <trkpt lat="43.29818" lon="6.4642">
        <ele>421.511261</ele>
        <time>2011-07-26T11:47:26Z</time>
      </trkpt>
      <trkpt lat="43.29836" lon="6.46479">
        <ele>417.712097</ele>
        <time>2011-07-26T11:47:32Z</time>
      </trkpt>
      <trkpt lat="43.29871" lon="6.46531">
        <ele>417.788635</ele>
        <time>2011-07-26T11:47:38Z</time>
      </trkpt>
      <trkpt lat="43.29902" lon="6.46576">
        <ele>416.788055</ele>
        <time>2011-07-26T11:47:44Z</time>
      </trkpt>
      <trkpt lat="43.29932" lon="6.46628">
        <ele>414.402954</ele>
        <time>2011-07-26T11:47:51Z</time>
      </trkpt>
      <trkpt lat="43.2996" lon="6.46684">
        <ele>414.439514</ele>
        <time>2011-07-26T11:47:57Z</time>
      </trkpt>
      <trkpt lat="43.29957" lon="6.46753">
        <ele>409.123199</ele>
        <time>2011-07-26T11:48:03Z</time>
      </trkpt>
      <trkpt lat="43.29969" lon="6.46814">
        <ele>407.008759</ele>
        <time>2011-07-26T11:48:09Z</time>
      </trkpt>
      <trkpt lat="43.30006" lon="6.46862">
        <ele>407.753906</ele>
        <time>2011-07-26T11:48:16Z</time>
      </trkpt>
      <trkpt lat="43.30052" lon="6.46875">
        <ele>407.378082</ele>
        <time>2011-07-26T11:48:23Z</time>
      </trkpt>
      <trkpt lat="43.30084" lon="6.46836">
        <ele>404.183258</ele>
        <time>2011-07-26T11:48:30Z</time>
      </trkpt>
      <trkpt lat="43.30101" lon="6.46773">
        <ele>401.499146</ele>
        <time>2011-07-26T11:48:35Z</time>
      </trkpt>
      <trkpt lat="43.30141" lon="6.46737">
        <ele>395.683258</ele>
        <time>2011-07-26T11:48:43Z</time>
      </trkpt>
      <trkpt lat="43.30188" lon="6.46737">
        <ele>387.31308</ele>
        <time>2011-07-26T11:48:51Z</time>
      </trkpt>
      <trkpt lat="43.30235" lon="6.46713">
        <ele>386.206512</ele>
        <time>2011-07-26T11:48:59Z</time>
      </trkpt>
      <trkpt lat="43.30282" lon="6.46747">
        <ele>375.12674</ele>
        <time>2011-07-26T11:49:05Z</time>
      </trkpt>
      <trkpt lat="43.30334" lon="6.46743">
        <ele>372.547302</ele>
        <time>2011-07-26T11:49:11Z</time>
      </trkpt>
      <trkpt lat="43.30382" lon="6.46717">
        <ele>370.099915</ele>
        <time>2011-07-26T11:49:16Z</time>
      </trkpt>
      <trkpt lat="43.30428" lon="6.467">
        <ele>373.625397</ele>
        <time>2011-07-26T11:49:21Z</time>
      </trkpt>
      <trkpt lat="43.30472" lon="6.46708">
        <ele>372.774719</ele>
        <time>2011-07-26T11:49:28Z</time>
      </trkpt>
      <trkpt lat="43.3052" lon="6.46717">
        <ele>368.154388</ele>
        <time>2011-07-26T11:49:35Z</time>
      </trkpt>
      <trkpt lat="43.3057" lon="6.46733">
        <ele>358.950806</ele>
        <time>2011-07-26T11:49:41Z</time>
      </trkpt>
      <trkpt lat="43.30616" lon="6.46706">
        <ele>355.600128</ele>
        <time>2011-07-26T11:49:47Z</time>
      </trkpt>
      <trkpt lat="43.30662" lon="6.4668">
        <ele>358.464325</ele>
        <time>2011-07-26T11:49:52Z</time>
      </trkpt>
      <trkpt lat="43.30707" lon="6.46695">
        <ele>358.779419</ele>
        <time>2011-07-26T11:49:58Z</time>
      </trkpt>
      <trkpt lat="43.30747" lon="6.46723">
        <ele>356.208466</ele>
        <time>2011-07-26T11:50:05Z</time>
      </trkpt>
      <trkpt lat="43.30789" lon="6.46744">
        <ele>358.89032</ele>
        <time>2011-07-26T11:50:14Z</time>
      </trkpt>
      <trkpt lat="43.30823" lon="6.46786">
        <ele>355.206024</ele>
        <time>2011-07-26T11:50:26Z</time>
      </trkpt>
      <trkpt lat="43.30849" lon="6.46835">
        <ele>351.473938</ele>
        <time>2011-07-26T11:50:46Z</time>
      </trkpt>
      <trkpt lat="43.30877" lon="6.4689">
        <ele>349.137573</ele>
        <time>2011-07-26T11:50:54Z</time>
      </trkpt>
      <trkpt lat="43.30911" lon="6.46938">
        <ele>347.757477</ele>
        <time>2011-07-26T11:51:03Z</time>
      </trkpt>
      <trkpt lat="43.30955" lon="6.4696">
        <ele>349.491791</ele>
        <time>2011-07-26T11:51:19Z</time>
      </trkpt>
      <trkpt lat="43.31" lon="6.4696">
        <ele>353.980438</ele>
        <time>2011-07-26T11:51:43Z</time>
      </trkpt>
      <trkpt lat="43.31049" lon="6.46973">
        <ele>354.266327</ele>
        <time>2011-07-26T11:52:03Z</time>
      </trkpt>
      <trkpt lat="43.31106" lon="6.46993">
        <ele>353.739624</ele>
        <time>2011-07-26T11:52:15Z</time>
      </trkpt>
      <trkpt lat="43.31145" lon="6.47028">
        <ele>349.278748</ele>
        <time>2011-07-26T11:52:24Z</time>
      </trkpt>
      <trkpt lat="43.31187" lon="6.47061">
        <ele>345.918762</ele>
        <time>2011-07-26T11:52:32Z</time>
      </trkpt>
      <trkpt lat="43.31232" lon="6.47091">
        <ele>344.962341</ele>
        <time>2011-07-26T11:52:39Z</time>
      </trkpt>
      <trkpt lat="43.31266" lon="6.4713">
        <ele>341.143372</ele>
        <time>2011-07-26T11:53:10Z</time>
      </trkpt>
      <trkpt lat="43.31309" lon="6.47147">
        <ele>348.127289</ele>
        <time>2011-07-26T11:53:29Z</time>
      </trkpt>
      <trkpt lat="43.31355" lon="6.47142">
        <ele>352.386993</ele>
        <time>2011-07-26T11:53:45Z</time>
      </trkpt>
      <trkpt lat="43.31403" lon="6.47125">
        <ele>353.276855</ele>
        <time>2011-07-26T11:53:59Z</time>
      </trkpt>
      <trkpt lat="43.31446" lon="6.47135">
        <ele>348.737579</ele>
        <time>2011-07-26T11:54:16Z</time>
      </trkpt>
    </trkseg>
  </trk>
</gpx>